TimeEST,TemperatureF,Dew PointF,Humidity,Sea Level PressureIn,VisibilityMPH,Wind Direction,Wind SpeedMPH,Gust SpeedMPH,PrecipitationIn,Events,Conditions,WindDirDegrees,DateUTC
1:52 AM,19.0,3.9,52,30.34,10.0,Calm,Calm,-,N/A,,Clear,0,2013-02-07 06:52:00
2:52 AM,18.0,3.9,54,30.35,10.0,Calm,Calm,-,N/A,,Clear,0,2013-02-07 07:52:00
3:52 AM,15.1,5.0,64,30.40,10.0,Calm,Calm,-,N/A,,Clear,0,2013-02-07 08:52:00
4:52 AM,12.9,5.0,71,30.42,10.0,WNW,3.5,-,N/A,,Clear,290,2013-02-07 09:52:00
5:52 AM,12.9,5.0,71,30.43,10.0,Calm,Calm,-,N/A,,Clear,0,2013-02-07 10:52:00
6:52 AM,12.9,5.0,71,30.46,10.0,NNW,3.5,-,N/A,,Clear,340,2013-02-07 11:52:00
7:52 AM,16.0,6.1,65,30.50,10.0,Calm,Calm,-,N/A,,Clear,0,2013-02-07 12:52:00
8:52 AM,21.0,1.0,42,30.52,10.0,WNW,8.1,-,N/A,,Clear,290,2013-02-07 13:52:00
9:52 AM,24.1,-0.0,35,30.53,10.0,WNW,12.7,-,N/A,,Clear,290,2013-02-07 14:52:00
10:52 AM,26.1,-0.0,32,30.53,10.0,NW,11.5,-,N/A,,Clear,320,2013-02-07 15:52:00
11:52 AM,28.0,-0.9,29,30.51,10.0,NW,8.1,-,N/A,,Clear,320,2013-02-07 16:52:00
12:52 PM,30.0,-0.0,28,30.49,10.0,WNW,4.6,-,N/A,,Clear,290,2013-02-07 17:52:00
1:52 PM,30.0,-0.0,28,30.47,10.0,North,6.9,-,N/A,,Mostly Cloudy,350,2013-02-07 18:52:00
2:52 PM,30.0,-0.0,28,30.47,10.0,Calm,Calm,-,N/A,,Overcast,0,2013-02-07 19:52:00
3:52 PM,28.9,-0.0,29,30.47,10.0,Calm,Calm,-,N/A,,Overcast,0,2013-02-07 20:52:00
4:52 PM,28.9,-0.0,29,30.47,10.0,Calm,Calm,-,N/A,,Overcast,0,2013-02-07 21:52:00
5:52 PM,28.0,-0.0,30,30.48,10.0,ENE,6.9,-,N/A,,Overcast,60,2013-02-07 22:52:00
6:52 PM,27.0,-0.0,31,30.51,10.0,ENE,5.8,-,N/A,,Overcast,60,2013-02-07 23:52:00
7:52 PM,26.1,-0.0,32,30.50,10.0,East,4.6,-,N/A,,Overcast,80,2013-02-08 00:52:00
8:52 PM,26.1,-2.0,30,30.51,10.0,East,5.8,-,N/A,,Overcast,80,2013-02-08 01:52:00
9:52 PM,25.0,-2.9,30,30.50,10.0,ESE,5.8,-,N/A,,Overcast,110,2013-02-08 02:52:00
10:52 PM,25.0,-2.9,30,30.49,10.0,East,3.5,-,N/A,,Overcast,90,2013-02-08 03:52:00
11:52 PM,25.0,-2.0,31,30.50,10.0,East,5.8,-,N/A,,Overcast,100,2013-02-08 04:52:00